Time;durP1;ratioP1;P1;durP2;ratioP2;P2;SDS_P1;SDS_P2;PMS_P1;PMS_P2;Temp;Humidity;BMP_temperature;BMP_pressure;BME280_temperature;BME280_humidity;BME280_pressure;Samples;Min_cycle;Max_cycle;Signal;HPM_P1;HPM_P2
2022/03/19 00:00:53;;;;;;;5.45;0.75;;;2.70;99.90;;;;;;6245902;23;20008;-88
2022/03/19 00:03:20;;;;;;;5.32;0.68;;;2.80;99.90;;;;;;6218497;23;20346;-88
2022/03/19 00:05:46;;;;;;;1.77;0.57;;;3.10;99.90;;;;;;6245495;23;20022;-87
2022/03/19 00:08:16;;;;;;;3.80;0.70;;;2.80;99.90;;;;;;6245412;23;20079;-89
2022/03/19 00:10:42;;;;;;;5.68;0.57;;;2.80;99.90;;;;;;6244601;23;20091;-88
2022/03/19 00:13:08;;;;;;;8.63;1.05;;;2.80;99.90;;;;;;6218457;23;20382;-89
2022/03/19 00:15:34;;;;;;;1.75;0.50;;;2.80;99.90;;;;;;6218452;23;20027;-88
2022/03/19 00:17:59;;;;;;;2.80;0.60;;;2.70;99.90;;;;;;6245589;23;20012;-88
2022/03/19 00:20:25;;;;;;;6.25;0.98;;;2.70;99.90;;;;;;6244895;23;20038;-88
2022/03/19 00:22:51;;;;;;;5.78;0.82;;;2.70;99.90;;;;;;6218390;23;20053;-89
2022/03/19 00:25:17;;;;;;;6.05;0.68;;;2.70;99.90;;;;;;6218036;23;20012;-88
2022/03/19 00:27:43;;;;;;;4.60;0.60;;;2.60;99.90;;;;;;6217828;23;20023;-89
2022/03/19 00:30:10;;;;;;;6.63;0.93;;;2.60;99.90;;;;;;6217955;23;20027;-88
2022/03/19 00:32:36;;;;;;;5.15;0.80;;;2.60;99.90;;;;;;6218067;23;20016;-85
2022/03/19 00:35:03;;;;;;;1.45;0.47;;;2.60;99.90;;;;;;6245571;23;20019;-79
2022/03/19 00:37:30;;;;;;;2.85;0.57;;;2.60;99.90;;;;;;6218465;23;20381;-79
2022/03/19 00:39:55;;;;;;;3.50;0.70;;;2.60;99.90;;;;;;6245171;23;20078;-82
2022/03/19 00:42:21;;;;;;;3.25;0.50;;;2.60;99.90;;;;;;6243958;23;20439;-79
2022/03/19 00:44:47;;;;;;;3.75;0.93;;;2.60;99.90;;;;;;6245844;23;20450;-80
2022/03/19 00:47:13;;;;;;;5.60;0.52;;;2.90;99.90;;;;;;6220018;23;20481;-83
2022/03/19 00:49:39;;;;;;;3.70;0.85;;;2.60;99.90;;;;;;6246846;23;20020;-82
2022/03/19 00:52:05;;;;;;;5.00;2.00;;;2.50;99.90;;;;;;6247012;23;20385;-83
2022/03/19 00:54:30;;;;;;;3.92;0.50;;;2.50;99.90;;;;;;6247337;23;20381;-84
2022/03/19 00:56:56;;;;;;;3.63;0.90;;;2.50;99.90;;;;;;6220057;23;20016;-80
2022/03/19 00:59:22;;;;;;;5.50;0.80;;;2.50;99.90;;;;;;6219996;23;20051;-82
2022/03/19 01:01:47;;;;;;;4.88;0.70;;;2.50;99.90;;;;;;6246742;23;20012;-85
2022/03/19 01:04:13;;;;;;;2.42;0.68;;;2.90;99.90;;;;;;6247181;23;20023;-87
2022/03/19 01:06:39;;;;;;;6.80;0.70;;;2.60;99.90;;;;;;6247098;23;20019;-86
2022/03/19 01:09:05;;;;;;;4.28;0.70;;;2.60;99.90;;;;;;6246924;23;20342;-85
2022/03/19 01:11:31;;;;;;;2.53;0.57;;;2.60;99.90;;;;;;6219821;23;20018;-85
2022/03/19 01:13:56;;;;;;;4.50;0.70;;;2.60;99.90;;;;;;6247249;23;20008;-83
2022/03/19 01:16:24;;;;;;;5.70;0.80;;;2.60;99.90;;;;;;6246825;23;20016;-84
2022/03/19 01:18:50;;;;;;;6.72;0.80;;;2.60;99.90;;;;;;6246855;23;20109;-87
2022/03/19 01:21:17;;;;;;;2.38;0.45;;;2.60;99.90;;;;;;6247675;23;20008;-86
2022/03/19 01:23:43;;;;;;;4.30;0.47;;;2.60;99.90;;;;;;6248099;23;20370;-84
2022/03/19 01:26:08;;;;;;;3.03;0.40;;;2.60;99.90;;;;;;6249011;23;20031;-85
2022/03/19 01:28:34;;;;;;;3.08;0.73;;;2.60;99.90;;;;;;6248434;23;20016;-87
2022/03/19 01:31:00;;;;;;;4.03;0.55;;;2.60;99.90;;;;;;6248236;23;20020;-85
2022/03/19 01:33:26;;;;;;;4.75;0.60;;;2.60;99.90;;;;;;6248538;23;20335;-85
2022/03/19 01:35:51;;;;;;;5.22;0.85;;;3.10;99.90;;;;;;6248448;23;20016;-85
2022/03/19 01:38:17;;;;;;;6.80;0.80;;;2.60;99.90;;;;;;6221680;23;20070;-87
2022/03/19 01:40:43;;;;;;;4.03;0.90;;;2.60;99.90;;;;;;6248760;23;20020;-86
2022/03/19 01:43:09;;;;;;;7.38;1.00;;;2.60;99.90;;;;;;6248723;23;20438;-88
2022/03/19 01:45:34;;;;;;;7.43;1.00;;;2.60;99.90;;;;;;6248425;23;20012;-86
2022/03/19 01:48:00;;;;;;;2.28;0.60;;;2.60;99.90;;;;;;6248554;23;20064;-88
2022/03/19 01:50:27;;;;;;;6.03;0.80;;;3.30;99.90;;;;;;6248591;23;20020;-86
2022/03/19 01:52:53;;;;;;;13.60;1.30;;;2.70;99.90;;;;;;6248250;23;20035;-89
2022/03/19 01:55:22;;;;;;;4.40;1.30;;;2.80;99.90;;;;;;6208825;23;20016;-86
2022/03/19 01:57:48;;;;;;;5.47;1.70;;;2.80;99.90;;;;;;6248214;23;20016;-88
2022/03/19 02:00:18;;;;;;;6.47;0.75;;;2.80;99.90;;;;;;6248922;23;20035;-88
2022/03/19 02:02:45;;;;;;;5.63;1.00;;;2.80;99.90;;;;;;6247908;23;20023;-88
2022/03/19 02:05:15;;;;;;;7.05;0.90;;;2.80;99.90;;;;;;6247870;23;20058;-88
2022/03/19 02:07:42;;;;;;;4.97;1.00;;;2.80;99.90;;;;;;6245996;23;20023;-83
2022/03/19 02:10:09;;;;;;;3.05;1.00;;;2.80;99.90;;;;;;6219129;23;20450;-88
2022/03/19 02:12:36;;;;;;;7.63;2.15;;;2.80;99.90;;;;;;6246124;23;20020;-88
2022/03/19 02:15:02;;;;;;;3.92;0.70;;;2.80;99.90;;;;;;6246100;23;20012;-86
2022/03/19 02:17:28;;;;;;;2.67;0.60;;;2.70;99.90;;;;;;6246316;23;20023;-88
2022/03/19 02:19:55;;;;;;;2.53;0.70;;;2.90;99.90;;;;;;6244411;23;20443;-86
2022/03/19 02:22:26;;;;;;;2.55;1.25;;;2.70;99.90;;;;;;6246447;23;20016;-88
2022/03/19 02:27:37;;;;;;;5.75;0.85;;;2.60;99.90;;;;;;6245977;23;20016;-87
2022/03/19 02:30:05;;;;;;;3.53;0.98;;;2.60;99.90;;;;;;6245903;23;20020;-87
2022/03/19 02:32:31;;;;;;;4.05;0.68;;;2.60;99.90;;;;;;6246443;23;20016;-87
2022/03/19 02:34:57;;;;;;;2.05;0.70;;;3.10;99.90;;;;;;6245939;23;20320;-88
2022/03/19 02:37:23;;;;;;;2.60;0.80;;;2.60;99.90;;;;;;6218739;23;20019;-87
2022/03/19 02:39:49;;;;;;;3.25;0.73;;;3.90;99.90;;;;;;6245822;23;20018;-88
2022/03/19 02:42:19;;;;;;;2.95;0.80;;;2.60;99.90;;;;;;6245879;23;20024;-88
2022/03/19 02:44:46;;;;;;;2.00;0.50;;;2.50;99.90;;;;;;6245846;23;20016;-87
2022/03/19 02:47:13;;;;;;;4.00;0.52;;;2.50;99.90;;;;;;6246562;23;20454;-83
2022/03/19 02:49:39;;;;;;;5.15;0.93;;;2.50;99.90;;;;;;6246827;23;20004;-88
2022/03/19 02:52:05;;;;;;;2.65;1.10;;;2.50;99.90;;;;;;6245592;23;20464;-88
2022/03/19 02:54:31;;;;;;;8.90;0.85;;;2.50;99.90;;;;;;6219091;23;20016;-88
2022/03/19 02:56:58;;;;;;;4.60;2.10;;;2.50;99.90;;;;;;6246225;23;20094;-88
2022/03/19 02:59:27;;;;;;;3.30;0.90;;;2.70;99.90;;;;;;6245457;23;20513;-88
2022/03/19 03:01:55;;;;;;;4.35;1.00;;;2.50;99.90;;;;;;6246023;23;20113;-88
2022/03/19 03:04:21;;;;;;;3.13;0.80;;;2.40;99.90;;;;;;6245704;23;20015;-85
2022/03/19 03:06:49;;;;;;;7.60;1.10;;;2.50;99.90;;;;;;6246003;23;20012;-88
2022/03/19 03:09:18;;;;;;;1.80;0.70;;;2.40;99.90;;;;;;6245010;23;20094;-88
2022/03/19 03:11:44;;;;;;;5.78;0.98;;;2.40;99.90;;;;;;6245490;23;20074;-84
2022/03/19 03:14:10;;;;;;;3.20;0.80;;;2.40;99.90;;;;;;6245818;23;20012;-86
2022/03/19 03:16:38;;;;;;;4.05;1.02;;;2.40;99.90;;;;;;6245190;23;20034;-87
2022/03/19 03:19:06;;;;;;;1.50;0.80;;;2.30;99.90;;;;;;6245071;23;20101;-88
2022/03/19 03:21:36;;;;;;;4.30;1.08;;;2.40;99.90;;;;;;6245544;23;20015;-88
2022/03/19 03:24:03;;;;;;;2.97;1.02;;;2.40;99.90;;;;;;6246122;23;20085;-88
2022/03/19 03:26:29;;;;;;;6.45;1.13;;;2.40;99.90;;;;;;6245828;23;20370;-84
2022/03/19 03:28:56;;;;;;;4.80;0.95;;;2.30;99.90;;;;;;6245807;23;20012;-87
2022/03/19 03:31:22;;;;;;;4.95;0.90;;;2.90;99.90;;;;;;6245613;23;20050;-84
2022/03/19 03:33:48;;;;;;;3.00;0.90;;;2.30;99.90;;;;;;6245777;23;20016;-86
2022/03/19 03:36:14;;;;;;;4.57;1.05;;;2.30;99.90;;;;;;6218185;23;20023;-85
2022/03/19 03:38:40;;;;;;;3.72;0.88;;;2.30;99.90;;;;;;6245599;23;20008;-87
2022/03/19 03:41:06;;;;;;;4.38;1.10;;;2.20;99.90;;;;;;6245116;23;20051;-88
2022/03/19 03:43:32;;;;;;;2.85;0.82;;;2.20;99.90;;;;;;6245834;23;20012;-85
2022/03/19 03:45:58;;;;;;;3.28;0.93;;;2.10;99.90;;;;;;6245680;23;20095;-88
2022/03/19 03:48:24;;;;;;;2.45;0.82;;;2.20;99.90;;;;;;6245435;23;20050;-88
2022/03/19 03:50:53;;;;;;;3.10;1.00;;;2.10;99.90;;;;;;6244836;23;20050;-88
2022/03/19 03:53:20;;;;;;;2.83;0.90;;;2.10;99.90;;;;;;6245772;23;20442;-87
2022/03/19 03:55:46;;;;;;;6.15;1.40;;;2.10;99.90;;;;;;6218040;23;20051;-85
2022/03/19 03:58:12;;;;;;;3.85;1.35;;;2.80;99.90;;;;;;6245482;23;20109;-88
2022/03/19 04:00:38;;;;;;;3.47;1.15;;;2.10;99.90;;;;;;6244845;23;20458;-87
2022/03/19 04:03:04;;;;;;;4.85;1.27;;;2.10;99.90;;;;;;6244980;23;20024;-87
2022/03/19 04:05:30;;;;;;;5.07;1.40;;;2.00;99.90;;;;;;6245717;23;20027;-84
2022/03/19 04:07:57;;;;;;;7.03;1.30;;;2.00;99.90;;;;;;6245585;23;20020;-88
2022/03/19 04:10:22;;;;;;;7.40;1.65;;;2.10;99.90;;;;;;6245221;23;20020;-88
2022/03/19 04:12:48;;;;;;;5.03;1.17;;;2.00;99.90;;;;;;6244781;23;20047;-87
2022/03/19 04:15:14;;;;;;;4.03;1.30;;;2.00;99.90;;;;;;6245033;23;20016;-85
2022/03/19 04:17:43;;;;;;;5.63;1.60;;;2.00;99.90;;;;;;6245295;23;20027;-88
2022/03/19 04:20:10;;;;;;;5.35;2.35;;;2.00;99.90;;;;;;6245992;23;20075;-87
2022/03/19 04:22:44;;;;;;;3.60;1.50;;;2.00;99.90;;;;;;6246776;23;20485;-88
2022/03/19 04:25:17;;;;;;;3.97;1.38;;;2.00;99.90;;;;;;6247671;23;20050;-87
2022/03/19 04:27:45;;;;;;;3.95;1.40;;;1.90;99.90;;;;;;6247466;23;20015;-87
2022/03/19 04:30:15;;;;;;;4.97;1.67;;;2.00;99.90;;;;;;6246876;23;20439;-89
2022/03/19 04:32:41;;;;;;;2.58;1.42;;;2.00;99.90;;;;;;6247238;23;20023;-86
2022/03/19 04:36:29;;;;;;;4.30;1.40;;;2.00;99.90;;;;;;6246923;23;20020;-85
2022/03/19 04:37:54;;;;;;;3.85;1.52;;;2.00;99.90;;;;;;6249234;23;20023;-89
2022/03/19 04:40:20;;;;;;;4.80;1.80;;;2.40;99.90;;;;;;6249565;23;20020;-86
2022/03/19 04:42:45;;;;;;;5.20;2.55;;;1.90;99.90;;;;;;6248542;23;20012;-88
2022/03/19 04:45:11;;;;;;;6.63;2.72;;;1.90;99.90;;;;;;6249312;23;20063;-86
2022/03/19 04:47:36;;;;;;;9.13;2.85;;;1.90;99.90;;;;;;6249616;23;20012;-87
2022/03/19 04:50:04;;;;;;;12.43;3.72;;;1.90;99.90;;;;;;6222060;23;20091;-82
2022/03/19 04:52:31;;;;;;;10.13;3.38;;;1.90;99.90;;;;;;6249848;23;20051;-86
2022/03/19 04:55:00;;;;;;;12.98;3.42;;;1.90;99.90;;;;;;6249527;23;20069;-88
2022/03/19 04:57:30;;;;;;;7.20;2.90;;;1.70;99.90;;;;;;6249410;23;20338;-87
2022/03/19 04:59:58;;;;;;;10.43;3.97;;;1.90;99.90;;;;;;6249514;23;20393;-88
2022/03/19 05:02:24;;;;;;;8.45;4.03;;;1.90;99.90;;;;;;6222340;23;20020;-87
2022/03/19 05:04:57;;;;;;;9.93;3.30;;;2.10;99.90;;;;;;6249546;23;20338;-88
2022/03/19 05:07:24;;;;;;;6.35;2.33;;;1.80;99.90;;;;;;6222661;23;20070;-88
2022/03/19 05:12:41;;;;;;;7.57;3.95;;;2.10;99.90;;;;;;6247318;23;20027;-88
2022/03/19 05:15:11;;;;;;;7.90;3.25;;;1.70;99.90;;;;;;6249331;23;20012;-89
2022/03/19 05:17:37;;;;;;;7.53;3.60;;;1.80;99.90;;;;;;6249804;23;20087;-88
2022/03/19 05:20:04;;;;;;;12.88;4.57;;;1.70;99.90;;;;;;6249027;23;20016;-89
2022/03/19 05:22:30;;;;;;;6.25;3.75;;;1.70;99.90;;;;;;6247406;23;20012;-88
2022/03/19 05:24:57;;;;;;;6.95;3.22;;;1.70;99.90;;;;;;6246662;23;20418;-88
2022/03/19 05:27:23;;;;;;;14.80;4.10;;;1.70;99.90;;;;;;6246459;23;20012;-88
2022/03/19 05:29:49;;;;;;;9.30;4.05;;;1.70;99.90;;;;;;6246863;23;20016;-89
2022/03/19 05:32:16;;;;;;;9.77;4.30;;;1.70;99.90;;;;;;6245967;23;20323;-88
2022/03/19 05:34:42;;;;;;;7.68;3.30;;;1.70;99.90;;;;;;6219398;23;20016;-88
2022/03/19 05:37:09;;;;;;;13.02;5.30;;;1.70;99.90;;;;;;6246772;23;20016;-89
2022/03/19 05:39:36;;;;;;;11.40;3.97;;;1.70;99.90;;;;;;6246693;23;20035;-88
2022/03/19 05:42:03;;;;;;;14.48;4.47;;;1.70;99.90;;;;;;6246681;23;20342;-88
2022/03/19 05:44:29;;;;;;;12.05;4.82;;;1.70;99.90;;;;;;6246453;23;20505;-88
2022/03/19 05:46:58;;;;;;;12.38;3.83;;;2.00;99.90;;;;;;6246292;23;20023;-88
2022/03/19 05:49:24;;;;;;;7.32;3.10;;;1.80;99.90;;;;;;6246604;23;20320;-88
2022/03/19 05:51:50;;;;;;;14.30;4.78;;;1.70;99.90;;;;;;6219999;23;20020;-88
2022/03/19 05:54:15;;;;;;;10.95;4.35;;;1.70;99.90;;;;;;6246831;23;20016;-88
2022/03/19 05:56:41;;;;;;;11.20;5.60;;;1.70;99.90;;;;;;6219802;23;20023;-88
2022/03/19 05:59:06;;;;;;;12.23;4.97;;;1.80;99.90;;;;;;6246181;23;20008;-88
2022/03/19 06:01:32;;;;;;;7.20;4.28;;;1.80;99.90;;;;;;6246646;23;20341;-79
2022/03/19 06:03:59;;;;;;;14.02;4.50;;;1.80;99.90;;;;;;6246786;23;20339;-88
2022/03/19 06:06:25;;;;;;;10.65;4.50;;;1.80;99.90;;;;;;6246803;23;20024;-88
2022/03/19 06:08:51;;;;;;;6.25;3.50;;;1.80;99.90;;;;;;6248478;23;20035;-87
2022/03/19 06:11:17;;;;;;;12.13;4.38;;;1.80;99.90;;;;;;6221998;23;20031;-88
2022/03/19 06:13:43;;;;;;;11.32;3.67;;;1.80;99.90;;;;;;6248903;23;20016;-88
2022/03/19 06:16:09;;;;;;;10.80;4.38;;;1.80;99.90;;;;;;6248095;23;20020;-86
2022/03/19 06:18:35;;;;;;;13.55;4.88;;;2.10;99.90;;;;;;6247950;23;20020;-87
2022/03/19 06:21:01;;;;;;;10.32;4.90;;;1.90;99.90;;;;;;6247819;23;20083;-88
2022/03/19 06:23:27;;;;;;;11.70;4.65;;;1.90;99.90;;;;;;6247900;23;20047;-88
2022/03/19 06:25:53;;;;;;;11.20;5.00;;;2.00;99.90;;;;;;6221428;23;20024;-88
2022/03/19 06:28:19;;;;;;;9.63;4.43;;;2.10;99.90;;;;;;6248272;23;20019;-88
2022/03/19 06:30:45;;;;;;;8.68;4.00;;;2.10;99.90;;;;;;6247901;23;20389;-88
2022/03/19 06:33:12;;;;;;;7.57;3.95;;;3.30;99.90;;;;;;6221206;23;20020;-88
2022/03/19 06:38:25;;;;;;;8.32;2.78;;;2.20;99.90;;;;;;6247942;23;20051;-86
2022/03/19 06:40:51;;;;;;;9.90;5.07;;;2.30;99.90;;;;;;6247995;23;20019;-87
2022/03/19 06:43:17;;;;;;;8.18;3.97;;;2.40;99.90;;;;;;6247805;23;20013;-88
2022/03/19 06:45:43;;;;;;;11.45;3.60;;;2.50;99.90;;;;;;6247432;23;20012;-88
2022/03/19 06:48:08;;;;;;;8.15;3.10;;;2.60;99.90;;;;;;6220772;23;20014;-88
2022/03/19 06:50:34;;;;;;;8.75;3.67;;;2.70;99.90;;;;;;6246834;23;20020;-87
2022/03/19 06:53:02;;;;;;;8.82;3.83;;;2.80;99.90;;;;;;6245780;23;20012;-87
2022/03/19 06:55:28;;;;;;;11.40;3.95;;;2.80;99.90;;;;;;6247730;23;20012;-87
2022/03/19 06:57:54;;;;;;;10.75;4.25;;;3.00;99.90;;;;;;6247261;23;20019;-88
2022/03/19 07:00:19;;;;;;;14.35;4.38;;;3.30;99.90;;;;;;6235011;23;20024;-88
2022/03/19 07:02:53;;;;;;;16.27;4.82;;;3.30;99.90;;;;;;6220123;23;20020;-87
2022/03/19 07:05:27;;;;;;;11.52;4.78;;;3.50;99.90;;;;;;6247203;23;20018;-88
2022/03/19 07:07:54;;;;;;;10.68;4.82;;;3.70;99.90;;;;;;6246178;23;20459;-87
2022/03/19 07:10:20;;;;;;;10.07;3.75;;;3.80;99.90;;;;;;6245689;22;20427;-87
2022/03/19 07:12:48;;;;;;;11.82;4.57;;;3.90;99.90;;;;;;6245727;23;20020;-88
2022/03/19 07:15:16;;;;;;;17.10;5.25;;;4.10;99.90;;;;;;6245855;23;20020;-88
2022/03/19 07:17:43;;;;;;;16.23;5.75;;;4.20;99.90;;;;;;6245411;23;20012;-87
2022/03/19 07:20:10;;;;;;;15.32;4.60;;;4.40;99.90;;;;;;6245422;23;20427;-88
2022/03/19 07:22:51;;;;;;;13.02;4.68;;;4.50;99.90;;;;;;6193409;23;20017;-88
2022/03/19 07:25:19;;;;;;;11.77;4.22;;;5.40;99.90;;;;;;6245883;23;20012;-87
2022/03/19 07:27:45;;;;;;;12.95;4.55;;;5.10;99.90;;;;;;6245064;23;20016;-87
2022/03/19 07:30:12;;;;;;;8.90;3.78;;;5.50;99.90;;;;;;6245626;23;20012;-87
2022/03/19 07:32:38;;;;;;;13.20;4.03;;;6.20;99.90;;;;;;6245369;23;20043;-86
2022/03/19 07:35:05;;;;;;;10.25;3.38;;;5.10;99.90;;;;;;6218310;23;20016;-85
2022/03/19 07:37:30;;;;;;;14.77;3.92;;;5.20;99.90;;;;;;6245606;23;20091;-85
2022/03/19 07:39:56;;;;;;;14.88;4.05;;;5.30;99.90;;;;;;6218542;23;20048;-87
2022/03/19 07:42:22;;;;;;;9.77;3.80;;;6.00;99.90;;;;;;6245628;23;20083;-88
2022/03/19 07:44:51;;;;;;;10.23;3.28;;;5.60;99.90;;;;;;6244921;23;20442;-86
2022/03/19 07:47:17;;;;;;;13.63;3.63;;;5.50;99.90;;;;;;6245330;23;20016;-87
2022/03/19 07:49:44;;;;;;;9.38;2.92;;;6.30;99.90;;;;;;6218309;23;20138;-87
2022/03/19 07:52:11;;;;;;;9.63;2.65;;;6.00;99.90;;;;;;6218367;23;20027;-86
2022/03/19 07:54:37;;;;;;;12.55;3.15;;;6.20;99.90;;;;;;6244836;23;20094;-85
2022/03/19 07:57:04;;;;;;;10.52;2.42;;;6.30;99.90;;;;;;6218445;23;20039;-85
2022/03/19 07:59:30;;;;;;;10.15;2.42;;;6.40;99.90;;;;;;6245590;23;20051;-86
2022/03/19 08:01:56;;;;;;;8.88;2.85;;;6.60;99.90;;;;;;6244324;23;20019;-85
2022/03/19 08:04:22;;;;;;;6.97;1.75;;;7.40;99.90;;;;;;6218266;23;20020;-85
2022/03/19 08:06:53;;;;;;;7.30;2.30;;;6.80;99.90;;;;;;6244931;23;20017;-85
2022/03/19 08:09:19;;;;;;;11.75;2.28;;;6.90;99.90;;;;;;6245509;23;20034;-84
2022/03/19 08:11:46;;;;;;;10.93;2.00;;;7.10;99.90;;;;;;6244989;22;20028;-86
2022/03/19 08:14:16;;;;;;;10.43;2.25;;;7.80;99.90;;;;;;6245185;23;20012;-85
2022/03/19 08:16:42;;;;;;;6.93;2.30;;;7.80;99.90;;;;;;6244574;23;20062;-86
2022/03/19 08:19:12;;;;;;;7.43;2.40;;;7.60;99.90;;;;;;6244819;23;20442;-86
2022/03/19 08:21:44;;;;;;;9.82;2.50;;;8.60;99.90;;;;;;6245009;23;20377;-85
2022/03/19 08:24:10;;;;;;;5.20;1.95;;;7.50;99.90;;;;;;6245080;23;20048;-85
2022/03/19 08:26:37;;;;;;;8.35;2.45;;;8.60;99.90;;;;;;6245209;23;20362;-84
2022/03/19 08:29:03;;;;;;;7.60;1.90;;;7.80;99.90;;;;;;6245074;23;20028;-83
2022/03/19 08:31:31;;;;;;;9.50;1.92;;;7.40;99.90;;;;;;6245226;23;20431;-84
2022/03/19 08:33:57;;;;;;;9.60;2.63;;;7.50;99.90;;;;;;6218097;23;20406;-85
2022/03/19 08:36:23;;;;;;;8.68;1.60;;;8.30;99.90;;;;;;6217859;23;20159;-85
2022/03/19 08:41:35;;;;;;;10.87;1.90;;;8.00;99.90;;;;;;6217770;23;20026;-83
2022/03/19 08:44:01;;;;;;;6.90;1.70;;;8.30;99.90;;;;;;6218708;23;20454;-87
2022/03/19 08:46:27;;;;;;;7.60;2.00;;;8.30;99.90;;;;;;6217923;23;20016;-84
2022/03/19 08:48:53;;;;;;;9.10;1.58;;;8.30;99.90;;;;;;6244600;23;20020;-86
2022/03/19 08:54:06;;;;;;;5.10;1.48;;;8.50;99.90;;;;;;6245009;23;20097;-84
2022/03/19 08:56:33;;;;;;;7.50;1.52;;;8.60;99.90;;;;;;6218157;23;20021;-87
2022/03/19 08:59:00;;;;;;;6.85;1.95;;;9.10;99.90;;;;;;6244276;23;20435;-85
2022/03/19 09:01:29;;;;;;;10.35;2.40;;;9.40;99.90;;;;;;6218017;23;20024;-85
2022/03/19 09:03:55;;;;;;;8.65;1.20;;;8.80;99.90;;;;;;6244821;23;20051;-86
2022/03/19 09:06:21;;;;;;;7.93;1.35;;;9.00;99.90;;;;;;6218889;23;20027;-85
2022/03/19 09:08:49;;;;;;;6.90;1.90;;;9.30;99.90;;;;;;6246619;23;20020;-88
2022/03/19 09:11:18;;;;;;;11.32;1.40;;;10.10;99.90;;;;;;6218992;23;20074;-87
2022/03/19 09:13:45;;;;;;;7.53;1.48;;;9.20;99.90;;;;;;6246703;23;20020;-84
2022/03/19 09:16:11;;;;;;;14.25;2.42;;;9.80;99.90;;;;;;6246450;23;20462;-88
2022/03/19 09:18:36;;;;;;;8.02;1.30;;;9.30;99.90;;;;;;6246567;23;20505;-89
2022/03/19 09:21:02;;;;;;;7.55;1.40;;;9.40;99.90;;;;;;6245827;23;20055;-89
2022/03/19 09:26:52;;;;;;;10.20;1.30;;;9.90;99.90;;;;;;6074200;23;20023;-91
2022/03/19 09:29:44;;;;;;;5.43;1.40;;;9.60;99.90;;;;;;6202621;22;20069;-87
2022/03/19 09:32:31;;;;;;;6.13;1.60;;;9.70;99.90;;;;;;6195474;23;20030;-84
2022/03/19 09:38:58;;;;;;;8.00;1.23;;;9.90;99.90;;;;;;6245135;22;20030;-85
2022/03/19 09:41:27;;;;;;;7.60;1.38;;;10.30;99.90;;;;;;6214956;22;20081;-84
2022/03/19 09:43:55;;;;;;;5.68;1.10;;;10.10;99.90;;;;;;6250801;22;20023;-85
2022/03/19 09:46:21;;;;;;;5.50;2.67;;;10.10;99.90;;;;;;6249996;22;20042;-86
2022/03/19 09:48:47;;;;;;;6.10;1.48;;;10.10;99.90;;;;;;6277080;22;20086;-88
2022/03/19 09:51:17;;;;;;;6.10;1.75;;;10.30;99.90;;;;;;6250913;22;20023;-86
2022/03/19 09:53:44;;;;;;;6.25;1.10;;;10.50;99.90;;;;;;6277177;22;20039;-86
2022/03/19 09:56:14;;;;;;;2.47;0.82;;;10.50;99.90;;;;;;6248717;22;20016;-85
2022/03/19 09:58:40;;;;;;;4.03;0.98;;;10.50;99.90;;;;;;6250337;22;20020;-85
2022/03/19 10:01:06;;;;;;;7.25;1.20;;;10.60;99.90;;;;;;6212599;23;20016;-86
2022/03/19 10:03:41;;;;;;;8.05;1.10;;;10.60;99.90;;;;;;6163414;23;20070;-84
2022/03/19 10:08:59;;;;;;;6.65;0.80;;;10.60;99.90;;;;;;6213080;23;20021;-85
2022/03/19 10:11:31;;;;;;;6.95;1.38;;;10.90;99.90;;;;;;6213236;23;20096;-85
2022/03/19 10:14:09;;;;;;;11.25;1.40;;;10.50;99.90;;;;;;6188247;23;20047;-87
2022/03/19 10:16:38;;;;;;;8.48;1.35;;;10.80;99.90;;;;;;6187698;23;20024;-86
2022/03/19 10:19:16;;;;;;;;;;;;;;;;;;;;;
2022/03/19 10:21:48;;;;;;;4.78;1.10;;;10.90;99.90;;;;;;6179323;23;20348;-86
2022/03/19 10:24:26;;;;;;;5.45;1.40;;;10.80;99.90;;;;;;6213385;23;20445;-86
2022/03/19 10:26:52;;;;;;;7.13;0.93;;;10.90;99.90;;;;;;6188412;23;20436;-85
2022/03/19 10:29:38;;;;;;;8.73;0.98;;;11.00;99.90;;;;;;6187927;23;20469;-84
2022/03/19 10:52:36;;;;;;;4.13;0.80;;;11.60;99.90;;;;;;6223078;22;20024;-84
2022/03/19 10:55:36;;;;;;;5.03;1.05;;;11.90;99.90;;;;;;6245322;23;20024;-87
2022/03/19 11:01:19;;;;;;;5.45;0.90;;;12.00;97.60;;;;;;6238845;22;20028;-86
2022/03/19 11:10:45;;;;;;;2.15;1.20;;;12.10;98.70;;;;;;6219828;22;20020;-86
2022/03/19 11:13:28;;;;;;;7.50;0.90;;;12.20;99.90;;;;;;6220699;23;20020;-86
2022/03/19 11:17:23;;;;;;;3.20;0.85;;;12.50;99.90;;;;;;6219729;23;20043;-84
2022/03/19 11:19:26;;;;;;;2.10;0.60;;;12.30;97.80;;;;;;6093938;23;20026;-88
2022/03/19 11:26:04;;;;;;;2.65;0.60;;;12.30;95.70;;;;;;6123716;23;20016;-85
2022/03/19 11:28:42;;;;;;;3.67;0.50;;;12.40;93.30;;;;;;6035751;23;20064;-84
2022/03/19 11:31:33;;;;;;;5.30;0.70;;;12.80;93.20;;;;;;6012716;23;20117;-84
2022/03/19 11:34:42;;;;;;;4.70;0.60;;;12.60;93.70;;;;;;6012532;23;20034;-84
2022/03/19 11:41:00;;;;;;;5.22;1.48;;;12.60;95.50;;;;;;6036811;23;20090;-84
2022/03/19 11:43:37;;;;;;;3.58;0.60;;;12.50;92.80;;;;;;5992845;23;20015;-83
2022/03/19 11:46:21;;;;;;;3.13;0.90;;;12.60;93.50;;;;;;6083166;22;20107;-86
2022/03/19 11:48:59;;;;;;;1.95;0.60;;;12.60;96.60;;;;;;6221147;23;20048;-84
2022/03/19 11:51:35;;;;;;;1.65;0.65;;;12.30;95.10;;;;;;6246625;23;20020;-85
2022/03/19 11:54:36;;;;;;;2.72;0.70;;;12.80;95.70;;;;;;6245715;23;20023;-86
2022/03/19 11:57:12;;;;;;;2.15;0.88;;;12.60;92.00;;;;;;6192927;23;20020;-84
2022/03/19 12:00:01;;;;;;;;;;;12.70;92.90;;;;;;6247995;23;20023;-85
2022/03/19 12:03:08;;;;;;;3.55;0.90;;;12.70;90.80;;;;;;6104143;23;20332;-86
2022/03/19 12:05:52;;;;;;;2.53;0.63;;;13.10;90.70;;;;;;6105394;23;20024;-86
2022/03/19 12:08:48;;;;;;;4.47;0.75;;;12.70;93.30;;;;;;6154052;23;20026;-85
2022/03/19 12:11:49;;;;;;;;;;;;;;;;;;;;;
2022/03/19 12:14:25;;;;;;;3.40;0.40;;;13.00;92.00;;;;;;6150564;23;20345;-86
2022/03/19 12:17:13;;;;;;;3.45;0.47;;;13.00;93.60;;;;;;6151712;23;20025;-85
2022/03/19 12:20:01;;;;;;;2.47;0.50;;;13.20;93.00;;;;;;6152474;23;20014;-85
2022/03/19 12:22:32;;;;;;;1.45;0.50;;;13.00;90.10;;;;;;6098512;23;20022;-85
2022/03/19 12:25:17;;;;;;;2.50;0.40;;;13.10;90.80;;;;;;6148743;23;20025;-85
2022/03/19 12:27:52;;;;;;;1.88;0.50;;;13.70;90.40;;;;;;6153265;23;20088;-85
2022/03/19 12:30:18;;;;;;;2.35;0.50;;;13.20;85.50;;;;;;6104412;23;20072;-85
2022/03/19 12:32:59;;;;;;;2.13;0.50;;;13.20;88.00;;;;;;6101112;23;20022;-85
2022/03/19 12:42:36;;;;;;;4.68;0.63;;;13.20;90.40;;;;;;6247423;23;20404;-85
2022/03/19 12:45:03;;;;;;;3.72;0.90;;;13.30;90.30;;;;;;6220047;23;20095;-85
2022/03/19 12:47:32;;;;;;;3.78;0.60;;;14.00;91.10;;;;;;6219485;23;20106;-86
2022/03/19 12:50:09;;;;;;;4.00;0.70;;;13.40;92.50;;;;;;6247357;23;20445;-85
2022/03/19 12:52:48;;;;;;;3.03;0.65;;;13.50;82.50;;;;;;6247316;23;20012;-86
2022/03/19 12:55:21;;;;;;;1.70;0.60;;;13.40;89.30;;;;;;6220147;23;20509;-86
2022/03/19 12:58:03;;;;;;;2.67;0.75;;;13.50;80.30;;;;;;6220401;23;20024;-86
2022/03/19 13:00:35;;;;;;;1.75;0.47;;;13.60;77.70;;;;;;6220089;23;20066;-85
2022/03/19 13:03:04;;;;;;;2.70;0.55;;;13.60;83.10;;;;;;6220703;23;20017;-85
2022/03/19 13:05:30;;;;;;;2.15;0.60;;;13.60;76.90;;;;;;6220679;23;20016;-86
2022/03/19 13:08:11;;;;;;;3.10;0.60;;;13.60;79.70;;;;;;6219686;23;20035;-86
2022/03/19 13:10:49;;;;;;;5.03;0.80;;;13.50;76.00;;;;;;6247155;23;20027;-85
2022/03/19 13:13:16;;;;;;;4.60;0.40;;;13.50;77.80;;;;;;6241343;23;20059;-84
2022/03/19 13:16:19;;;;;;;2.10;0.52;;;13.50;77.40;;;;;;6195021;23;20474;-85
2022/03/19 13:18:47;;;;;;;5.00;1.15;;;13.50;78.50;;;;;;6247033;23;20016;-86
2022/03/19 13:21:22;;;;;;;3.20;0.60;;;13.50;76.60;;;;;;6219814;23;20039;-86
2022/03/19 13:23:50;;;;;;;4.03;0.55;;;13.50;76.40;;;;;;6220332;23;20019;-85
2022/03/19 13:26:21;;;;;;;2.22;0.60;;;13.50;76.50;;;;;;6219822;23;20023;-85
2022/03/19 13:29:13;;;;;;;3.55;0.85;;;13.60;79.40;;;;;;6219836;23;20016;-86
2022/03/19 13:31:44;;;;;;;3.30;0.70;;;13.70;78.50;;;;;;6219540;23;20405;-85
2022/03/19 13:34:38;;;;;;;1.50;0.50;;;13.80;77.90;;;;;;6220092;23;20446;-85
2022/03/19 13:37:06;;;;;;;3.20;0.60;;;13.60;75.40;;;;;;6245046;23;20020;-84
2022/03/19 13:39:43;;;;;;;2.42;0.80;;;13.70;80.30;;;;;;6220014;23;20020;-82
2022/03/19 13:42:19;;;;;;;2.55;0.90;;;13.90;87.60;;;;;;6219626;23;20100;-85
2022/03/19 13:45:02;;;;;;;2.45;1.08;;;13.70;83.90;;;;;;6194975;23;20016;-85
2022/03/19 13:47:42;;;;;;;3.28;0.47;;;13.40;80.40;;;;;;6219952;23;20027;-84
2022/03/19 13:50:12;;;;;;;2.45;0.60;;;13.80;81.40;;;;;;6245496;23;20475;-85
2022/03/19 13:56:21;;;;;;;4.50;0.82;;;13.70;78.60;;;;;;6246278;23;20346;-84
2022/03/19 13:58:59;;;;;;;3.00;0.50;;;13.70;84.20;;;;;;6217772;23;20074;-85
2022/03/19 14:01:31;;;;;;;5.85;0.80;;;13.60;86.60;;;;;;6218838;23;20012;-86
2022/03/19 14:04:03;;;;;;;1.10;0.50;;;14.00;88.70;;;;;;6219975;23;20023;-85
2022/03/19 14:06:36;;;;;;;1.52;0.73;;;13.50;87.70;;;;;;6219806;23;20016;-86
2022/03/19 14:09:08;;;;;;;2.97;0.60;;;13.40;90.40;;;;;;6218137;23;20046;-85
2022/03/19 14:11:44;;;;;;;2.15;0.60;;;13.30;92.90;;;;;;6219950;23;20331;-82
2022/03/19 14:14:16;;;;;;;4.97;0.60;;;13.70;93.60;;;;;;6194675;23;20016;-83
2022/03/19 14:16:55;;;;;;;4.30;0.75;;;13.40;93.40;;;;;;6219541;23;20103;-81
2022/03/19 14:19:22;;;;;;;3.35;0.70;;;13.60;92.30;;;;;;6219350;23;20095;-82
2022/03/19 14:21:56;;;;;;;8.13;0.70;;;13.60;94.60;;;;;;6246263;23;20442;-82